sensor_id;sensor_type;location;lat;lon;timestamp;P1;durP1;ratioP1;P2;durP2;ratioP2
12474;SDS011;6302;42.624;23.334;2024-02-26T00:00:11;14.60;;;9.67;;
12474;SDS011;6302;42.624;23.334;2024-02-26T00:02:39;14.27;;;10.17;;
12474;SDS011;6302;42.624;23.334;2024-02-26T00:05:07;10.60;;;9.37;;
12474;SDS011;6302;42.624;23.334;2024-02-26T00:07:35;13.17;;;10.13;;
12474;SDS011;6302;42.624;23.334;2024-02-26T00:10:03;15.43;;;10.17;;
12474;SDS011;6302;42.624;23.334;2024-02-26T00:12:30;10.33;;;9.30;;
12474;SDS011;6302;42.624;23.334;2024-02-26T00:14:57;11.37;;;8.97;;
12474;SDS011;6302;42.624;23.334;2024-02-26T00:17:24;10.53;;;8.63;;
12474;SDS011;6302;42.624;23.334;2024-02-26T00:19:50;9.53;;;8.47;;
12474;SDS011;6302;42.624;23.334;2024-02-26T00:22:18;8.97;;;7.57;;
12474;SDS011;6302;42.624;23.334;2024-02-26T00:24:46;15.20;;;8.63;;
12474;SDS011;6302;42.624;23.334;2024-02-26T00:27:12;10.83;;;9.57;;
12474;SDS011;6302;42.624;23.334;2024-02-26T00:29:39;11.37;;;9.50;;
12474;SDS011;6302;42.624;23.334;2024-02-26T00:32:06;13.13;;;10.50;;
12474;SDS011;6302;42.624;23.334;2024-02-26T00:34:33;12.03;;;10.40;;
12474;SDS011;6302;42.624;23.334;2024-02-26T00:37:00;13.60;;;9.90;;
12474;SDS011;6302;42.624;23.334;2024-02-26T00:39:26;11.93;;;9.70;;
12474;SDS011;6302;42.624;23.334;2024-02-26T00:41:54;12.53;;;10.33;;
12474;SDS011;6302;42.624;23.334;2024-02-26T00:44:22;11.50;;;9.63;;
12474;SDS011;6302;42.624;23.334;2024-02-26T00:46:48;11.50;;;9.87;;
12474;SDS011;6302;42.624;23.334;2024-02-26T00:49:15;13.27;;;10.57;;
12474;SDS011;6302;42.624;23.334;2024-02-26T00:51:42;13.67;;;9.97;;
12474;SDS011;6302;42.624;23.334;2024-02-26T00:54:09;15.53;;;12.17;;
12474;SDS011;6302;42.624;23.334;2024-02-26T00:56:35;17.47;;;13.40;;
12474;SDS011;6302;42.624;23.334;2024-02-26T00:59:03;19.60;;;14.87;;
12474;SDS011;6302;42.624;23.334;2024-02-26T01:01:30;16.63;;;13.43;;
12474;SDS011;6302;42.624;23.334;2024-02-26T01:03:57;15.40;;;11.83;;
12474;SDS011;6302;42.624;23.334;2024-02-26T01:06:24;13.40;;;11.43;;
12474;SDS011;6302;42.624;23.334;2024-02-26T01:08:51;12.27;;;10.80;;
12474;SDS011;6302;42.624;23.334;2024-02-26T01:11:17;11.67;;;9.53;;
12474;SDS011;6302;42.624;23.334;2024-02-26T01:13:44;11.13;;;9.93;;
12474;SDS011;6302;42.624;23.334;2024-02-26T01:16:12;10.97;;;9.40;;
12474;SDS011;6302;42.624;23.334;2024-02-26T01:18:39;10.77;;;9.63;;
12474;SDS011;6302;42.624;23.334;2024-02-26T01:21:06;11.90;;;10.07;;
12474;SDS011;6302;42.624;23.334;2024-02-26T01:23:34;15.63;;;11.87;;
12474;SDS011;6302;42.624;23.334;2024-02-26T01:26:00;14.87;;;12.97;;
12474;SDS011;6302;42.624;23.334;2024-02-26T01:28:29;16.20;;;12.83;;
12474;SDS011;6302;42.624;23.334;2024-02-26T01:30:56;15.67;;;13.30;;
12474;SDS011;6302;42.624;23.334;2024-02-26T01:33:25;16.23;;;12.53;;
12474;SDS011;6302;42.624;23.334;2024-02-26T01:35:51;15.27;;;11.97;;
12474;SDS011;6302;42.624;23.334;2024-02-26T01:38:18;15.27;;;13.00;;
12474;SDS011;6302;42.624;23.334;2024-02-26T01:40:45;16.30;;;13.30;;
12474;SDS011;6302;42.624;23.334;2024-02-26T01:43:12;14.63;;;13.10;;
12474;SDS011;6302;42.624;23.334;2024-02-26T01:45:38;18.47;;;13.10;;
12474;SDS011;6302;42.624;23.334;2024-02-26T01:48:05;14.93;;;12.77;;
12474;SDS011;6302;42.624;23.334;2024-02-26T01:50:34;13.20;;;11.17;;
12474;SDS011;6302;42.624;23.334;2024-02-26T01:53:03;13.17;;;11.43;;
12474;SDS011;6302;42.624;23.334;2024-02-26T01:55:30;12.70;;;10.57;;
12474;SDS011;6302;42.624;23.334;2024-02-26T01:58:00;13.13;;;10.87;;
12474;SDS011;6302;42.624;23.334;2024-02-26T02:00:27;12.37;;;9.70;;
12474;SDS011;6302;42.624;23.334;2024-02-26T02:02:54;12.67;;;10.27;;
12474;SDS011;6302;42.624;23.334;2024-02-26T02:05:21;11.20;;;9.73;;
12474;SDS011;6302;42.624;23.334;2024-02-26T02:07:50;13.00;;;10.00;;
12474;SDS011;6302;42.624;23.334;2024-02-26T02:10:18;10.00;;;9.00;;
12474;SDS011;6302;42.624;23.334;2024-02-26T02:12:47;10.63;;;9.37;;
12474;SDS011;6302;42.624;23.334;2024-02-26T02:15:14;12.13;;;9.20;;
12474;SDS011;6302;42.624;23.334;2024-02-26T02:17:41;11.33;;;8.87;;
12474;SDS011;6302;42.624;23.334;2024-02-26T02:20:09;11.47;;;8.80;;
12474;SDS011;6302;42.624;23.334;2024-02-26T02:22:37;9.77;;;8.77;;
12474;SDS011;6302;42.624;23.334;2024-02-26T02:25:05;12.80;;;9.33;;
12474;SDS011;6302;42.624;23.334;2024-02-26T02:27:32;11.77;;;9.83;;
12474;SDS011;6302;42.624;23.334;2024-02-26T02:29:58;12.37;;;9.40;;
12474;SDS011;6302;42.624;23.334;2024-02-26T02:32:26;11.53;;;9.77;;
12474;SDS011;6302;42.624;23.334;2024-02-26T02:34:54;14.97;;;10.30;;
12474;SDS011;6302;42.624;23.334;2024-02-26T02:37:20;12.90;;;10.90;;
12474;SDS011;6302;42.624;23.334;2024-02-26T02:39:49;14.27;;;12.30;;
12474;SDS011;6302;42.624;23.334;2024-02-26T02:42:15;15.27;;;12.57;;
12474;SDS011;6302;42.624;23.334;2024-02-26T02:44:42;17.70;;;12.60;;
12474;SDS011;6302;42.624;23.334;2024-02-26T02:47:09;16.03;;;13.20;;
12474;SDS011;6302;42.624;23.334;2024-02-26T02:49:36;17.03;;;13.77;;
12474;SDS011;6302;42.624;23.334;2024-02-26T02:52:04;19.83;;;13.90;;
12474;SDS011;6302;42.624;23.334;2024-02-26T02:54:30;15.80;;;13.67;;
12474;SDS011;6302;42.624;23.334;2024-02-26T02:56:59;13.97;;;12.47;;
12474;SDS011;6302;42.624;23.334;2024-02-26T02:59:25;13.03;;;11.60;;
12474;SDS011;6302;42.624;23.334;2024-02-26T03:01:52;15.43;;;13.10;;
12474;SDS011;6302;42.624;23.334;2024-02-26T03:04:19;15.43;;;12.40;;
12474;SDS011;6302;42.624;23.334;2024-02-26T03:06:46;15.80;;;12.73;;
12474;SDS011;6302;42.624;23.334;2024-02-26T03:09:12;13.33;;;11.93;;
12474;SDS011;6302;42.624;23.334;2024-02-26T03:11:39;15.23;;;12.47;;
12474;SDS011;6302;42.624;23.334;2024-02-26T03:14:07;12.93;;;11.33;;
12474;SDS011;6302;42.624;23.334;2024-02-26T03:16:34;13.97;;;11.23;;
12474;SDS011;6302;42.624;23.334;2024-02-26T03:19:01;14.80;;;10.90;;
12474;SDS011;6302;42.624;23.334;2024-02-26T03:21:29;14.13;;;11.60;;
12474;SDS011;6302;42.624;23.334;2024-02-26T03:23:55;12.97;;;11.57;;
12474;SDS011;6302;42.624;23.334;2024-02-26T03:26:22;15.30;;;11.87;;
12474;SDS011;6302;42.624;23.334;2024-02-26T03:28:49;13.57;;;10.97;;
12474;SDS011;6302;42.624;23.334;2024-02-26T03:31:17;12.63;;;11.33;;
12474;SDS011;6302;42.624;23.334;2024-02-26T03:33:44;11.30;;;9.57;;
12474;SDS011;6302;42.624;23.334;2024-02-26T03:36:11;13.17;;;10.80;;
12474;SDS011;6302;42.624;23.334;2024-02-26T03:38:38;11.73;;;9.37;;
12474;SDS011;6302;42.624;23.334;2024-02-26T03:41:05;10.87;;;9.27;;
12474;SDS011;6302;42.624;23.334;2024-02-26T03:43:33;9.40;;;8.50;;
12474;SDS011;6302;42.624;23.334;2024-02-26T03:46:00;11.00;;;9.17;;
12474;SDS011;6302;42.624;23.334;2024-02-26T03:48:28;11.03;;;8.93;;
12474;SDS011;6302;42.624;23.334;2024-02-26T03:50:55;10.60;;;8.93;;
12474;SDS011;6302;42.624;23.334;2024-02-26T03:53:22;10.30;;;8.10;;
12474;SDS011;6302;42.624;23.334;2024-02-26T03:55:48;9.00;;;7.53;;
12474;SDS011;6302;42.624;23.334;2024-02-26T03:58:17;10.37;;;7.57;;
12474;SDS011;6302;42.624;23.334;2024-02-26T04:00:43;9.70;;;7.57;;
12474;SDS011;6302;42.624;23.334;2024-02-26T04:03:12;10.00;;;7.10;;
12474;SDS011;6302;42.624;23.334;2024-02-26T04:05:40;10.30;;;9.20;;
12474;SDS011;6302;42.624;23.334;2024-02-26T04:08:07;8.30;;;6.97;;
12474;SDS011;6302;42.624;23.334;2024-02-26T04:10:35;9.57;;;7.47;;
12474;SDS011;6302;42.624;23.334;2024-02-26T04:13:03;11.57;;;9.53;;
12474;SDS011;6302;42.624;23.334;2024-02-26T04:15:30;12.27;;;10.70;;
12474;SDS011;6302;42.624;23.334;2024-02-26T04:17:57;13.80;;;9.70;;
12474;SDS011;6302;42.624;23.334;2024-02-26T04:20:24;9.00;;;8.10;;
12474;SDS011;6302;42.624;23.334;2024-02-26T04:22:52;9.30;;;8.23;;
12474;SDS011;6302;42.624;23.334;2024-02-26T04:25:19;11.83;;;8.73;;
12474;SDS011;6302;42.624;23.334;2024-02-26T04:27:45;11.30;;;10.10;;
12474;SDS011;6302;42.624;23.334;2024-02-26T04:30:12;15.00;;;10.27;;
12474;SDS011;6302;42.624;23.334;2024-02-26T04:32:39;14.40;;;10.80;;
12474;SDS011;6302;42.624;23.334;2024-02-26T04:35:06;9.50;;;8.50;;
12474;SDS011;6302;42.624;23.334;2024-02-26T04:37:33;11.27;;;8.87;;
12474;SDS011;6302;42.624;23.334;2024-02-26T04:40:01;9.40;;;8.10;;
12474;SDS011;6302;42.624;23.334;2024-02-26T04:42:29;8.90;;;7.87;;
12474;SDS011;6302;42.624;23.334;2024-02-26T04:44:56;12.20;;;9.10;;
12474;SDS011;6302;42.624;23.334;2024-02-26T04:47:23;10.43;;;9.27;;
12474;SDS011;6302;42.624;23.334;2024-02-26T04:49:50;20.00;;;17.57;;
12474;SDS011;6302;42.624;23.334;2024-02-26T04:52:17;20.17;;;16.17;;
12474;SDS011;6302;42.624;23.334;2024-02-26T04:54:44;18.97;;;15.17;;
12474;SDS011;6302;42.624;23.334;2024-02-26T04:57:13;15.83;;;11.73;;
12474;SDS011;6302;42.624;23.334;2024-02-26T04:59:39;15.23;;;12.53;;
12474;SDS011;6302;42.624;23.334;2024-02-26T05:02:07;13.87;;;11.50;;
12474;SDS011;6302;42.624;23.334;2024-02-26T05:04:34;16.10;;;12.97;;
12474;SDS011;6302;42.624;23.334;2024-02-26T05:07:01;17.67;;;14.30;;
12474;SDS011;6302;42.624;23.334;2024-02-26T05:09:28;16.70;;;13.87;;
12474;SDS011;6302;42.624;23.334;2024-02-26T05:11:55;16.87;;;15.03;;
12474;SDS011;6302;42.624;23.334;2024-02-26T05:14:23;24.40;;;15.97;;
12474;SDS011;6302;42.624;23.334;2024-02-26T05:16:50;20.53;;;16.97;;
12474;SDS011;6302;42.624;23.334;2024-02-26T05:19:16;22.47;;;17.90;;
12474;SDS011;6302;42.624;23.334;2024-02-26T05:21:43;20.90;;;16.10;;
12474;SDS011;6302;42.624;23.334;2024-02-26T05:24:12;14.70;;;13.10;;
12474;SDS011;6302;42.624;23.334;2024-02-26T05:26:40;16.03;;;13.13;;
12474;SDS011;6302;42.624;23.334;2024-02-26T05:29:07;15.70;;;13.80;;
12474;SDS011;6302;42.624;23.334;2024-02-26T05:31:35;17.77;;;14.27;;
12474;SDS011;6302;42.624;23.334;2024-02-26T05:34:02;16.67;;;13.80;;
12474;SDS011;6302;42.624;23.334;2024-02-26T05:36:29;15.77;;;13.50;;
12474;SDS011;6302;42.624;23.334;2024-02-26T05:38:58;16.07;;;13.20;;
12474;SDS011;6302;42.624;23.334;2024-02-26T05:41:25;16.47;;;13.23;;
12474;SDS011;6302;42.624;23.334;2024-02-26T05:43:52;16.93;;;14.30;;
12474;SDS011;6302;42.624;23.334;2024-02-26T05:46:19;23.17;;;15.37;;
12474;SDS011;6302;42.624;23.334;2024-02-26T05:48:48;17.73;;;14.30;;
12474;SDS011;6302;42.624;23.334;2024-02-26T05:51:15;20.73;;;16.40;;
12474;SDS011;6302;42.624;23.334;2024-02-26T05:53:42;21.07;;;16.47;;
12474;SDS011;6302;42.624;23.334;2024-02-26T05:56:09;20.93;;;17.27;;
12474;SDS011;6302;42.624;23.334;2024-02-26T05:58:35;19.27;;;17.27;;
12474;SDS011;6302;42.624;23.334;2024-02-26T06:01:03;22.43;;;18.60;;
12474;SDS011;6302;42.624;23.334;2024-02-26T06:03:29;22.17;;;17.93;;
12474;SDS011;6302;42.624;23.334;2024-02-26T06:05:58;23.90;;;17.60;;
12474;SDS011;6302;42.624;23.334;2024-02-26T06:08:24;20.30;;;17.37;;
12474;SDS011;6302;42.624;23.334;2024-02-26T06:10:51;21.23;;;17.57;;
12474;SDS011;6302;42.624;23.334;2024-02-26T06:13:18;26.30;;;20.17;;
12474;SDS011;6302;42.624;23.334;2024-02-26T06:15:44;23.27;;;18.63;;
12474;SDS011;6302;42.624;23.334;2024-02-26T06:18:11;23.33;;;18.87;;
12474;SDS011;6302;42.624;23.334;2024-02-26T06:20:38;24.33;;;19.13;;
12474;SDS011;6302;42.624;23.334;2024-02-26T06:23:06;23.10;;;20.17;;
12474;SDS011;6302;42.624;23.334;2024-02-26T06:25:33;26.77;;;20.23;;
12474;SDS011;6302;42.624;23.334;2024-02-26T06:28:00;21.43;;;19.13;;
12474;SDS011;6302;42.624;23.334;2024-02-26T06:30:27;23.60;;;20.23;;
12474;SDS011;6302;42.624;23.334;2024-02-26T06:32:53;24.57;;;18.57;;
12474;SDS011;6302;42.624;23.334;2024-02-26T06:35:20;23.57;;;19.60;;
12474;SDS011;6302;42.624;23.334;2024-02-26T06:37:47;24.93;;;20.00;;
12474;SDS011;6302;42.624;23.334;2024-02-26T06:40:17;25.57;;;20.30;;
12474;SDS011;6302;42.624;23.334;2024-02-26T06:42:43;27.80;;;21.30;;
12474;SDS011;6302;42.624;23.334;2024-02-26T06:45:10;23.93;;;20.03;;
12474;SDS011;6302;42.624;23.334;2024-02-26T06:47:37;26.03;;;21.80;;
12474;SDS011;6302;42.624;23.334;2024-02-26T06:50:04;24.57;;;20.20;;
12474;SDS011;6302;42.624;23.334;2024-02-26T06:52:31;27.77;;;22.40;;
12474;SDS011;6302;42.624;23.334;2024-02-26T06:54:58;26.90;;;21.30;;
12474;SDS011;6302;42.624;23.334;2024-02-26T06:57:26;27.73;;;21.70;;
12474;SDS011;6302;42.624;23.334;2024-02-26T06:59:53;31.77;;;22.17;;
12474;SDS011;6302;42.624;23.334;2024-02-26T07:02:19;30.30;;;22.03;;
12474;SDS011;6302;42.624;23.334;2024-02-26T07:04:46;27.63;;;21.37;;
12474;SDS011;6302;42.624;23.334;2024-02-26T07:07:13;36.50;;;26.17;;
12474;SDS011;6302;42.624;23.334;2024-02-26T07:09:41;29.27;;;23.07;;
12474;SDS011;6302;42.624;23.334;2024-02-26T07:12:08;24.70;;;20.30;;
12474;SDS011;6302;42.624;23.334;2024-02-26T07:14:36;28.03;;;20.27;;
12474;SDS011;6302;42.624;23.334;2024-02-26T07:17:03;24.43;;;19.23;;
12474;SDS011;6302;42.624;23.334;2024-02-26T07:19:30;25.93;;;18.83;;
12474;SDS011;6302;42.624;23.334;2024-02-26T07:21:57;16.83;;;15.03;;
12474;SDS011;6302;42.624;23.334;2024-02-26T07:24:24;17.70;;;13.43;;
12474;SDS011;6302;42.624;23.334;2024-02-26T07:26:50;17.03;;;13.00;;
12474;SDS011;6302;42.624;23.334;2024-02-26T07:29:19;16.87;;;13.00;;
12474;SDS011;6302;42.624;23.334;2024-02-26T07:31:47;16.63;;;12.50;;
12474;SDS011;6302;42.624;23.334;2024-02-26T07:34:14;14.87;;;10.73;;
12474;SDS011;6302;42.624;23.334;2024-02-26T07:36:41;9.80;;;8.20;;
12474;SDS011;6302;42.624;23.334;2024-02-26T07:39:07;9.07;;;7.87;;
12474;SDS011;6302;42.624;23.334;2024-02-26T07:41:34;9.30;;;7.17;;
12474;SDS011;6302;42.624;23.334;2024-02-26T07:44:03;10.47;;;7.63;;
12474;SDS011;6302;42.624;23.334;2024-02-26T07:46:30;8.87;;;8.00;;
12474;SDS011;6302;42.624;23.334;2024-02-26T07:48:58;10.80;;;8.10;;
12474;SDS011;6302;42.624;23.334;2024-02-26T07:51:25;10.13;;;7.40;;
12474;SDS011;6302;42.624;23.334;2024-02-26T07:53:51;8.93;;;7.57;;
12474;SDS011;6302;42.624;23.334;2024-02-26T07:56:18;9.17;;;7.43;;
12474;SDS011;6302;42.624;23.334;2024-02-26T07:58:45;8.50;;;7.37;;
12474;SDS011;6302;42.624;23.334;2024-02-26T08:01:12;8.50;;;7.70;;
12474;SDS011;6302;42.624;23.334;2024-02-26T08:03:39;9.03;;;7.13;;
12474;SDS011;6302;42.624;23.334;2024-02-26T08:06:08;10.50;;;7.77;;
12474;SDS011;6302;42.624;23.334;2024-02-26T08:08:35;8.07;;;7.37;;
12474;SDS011;6302;42.624;23.334;2024-02-26T08:11:02;11.47;;;8.57;;
12474;SDS011;6302;42.624;23.334;2024-02-26T08:13:29;10.40;;;8.23;;
12474;SDS011;6302;42.624;23.334;2024-02-26T08:15:56;8.47;;;7.27;;
12474;SDS011;6302;42.624;23.334;2024-02-26T08:18:22;8.53;;;7.03;;
12474;SDS011;6302;42.624;23.334;2024-02-26T08:20:49;11.90;;;7.80;;
12474;SDS011;6302;42.624;23.334;2024-02-26T08:23:17;7.30;;;6.60;;
12474;SDS011;6302;42.624;23.334;2024-02-26T08:25:44;9.00;;;7.83;;
12474;SDS011;6302;42.624;23.334;2024-02-26T08:28:11;9.70;;;7.60;;
12474;SDS011;6302;42.624;23.334;2024-02-26T08:30:38;8.30;;;7.40;;
12474;SDS011;6302;42.624;23.334;2024-02-26T08:33:05;9.50;;;7.30;;
12474;SDS011;6302;42.624;23.334;2024-02-26T08:35:32;7.90;;;7.10;;
12474;SDS011;6302;42.624;23.334;2024-02-26T08:37:58;8.80;;;7.77;;
12474;SDS011;6302;42.624;23.334;2024-02-26T08:40:26;8.63;;;7.33;;
12474;SDS011;6302;42.624;23.334;2024-02-26T08:42:53;10.43;;;6.90;;
12474;SDS011;6302;42.624;23.334;2024-02-26T08:45:20;8.20;;;7.40;;
12474;SDS011;6302;42.624;23.334;2024-02-26T08:47:47;7.87;;;7.17;;
12474;SDS011;6302;42.624;23.334;2024-02-26T08:50:14;7.77;;;7.00;;
12474;SDS011;6302;42.624;23.334;2024-02-26T08:52:41;9.23;;;7.27;;
12474;SDS011;6302;42.624;23.334;2024-02-26T08:55:08;7.37;;;6.67;;
12474;SDS011;6302;42.624;23.334;2024-02-26T08:57:36;10.80;;;8.27;;
12474;SDS011;6302;42.624;23.334;2024-02-26T09:00:04;10.43;;;8.53;;
12474;SDS011;6302;42.624;23.334;2024-02-26T09:02:32;11.73;;;9.07;;
12474;SDS011;6302;42.624;23.334;2024-02-26T09:04:58;8.33;;;7.33;;
12474;SDS011;6302;42.624;23.334;2024-02-26T09:07:25;7.60;;;6.63;;
12474;SDS011;6302;42.624;23.334;2024-02-26T09:09:52;9.63;;;7.70;;
12474;SDS011;6302;42.624;23.334;2024-02-26T09:12:18;8.63;;;7.03;;
12474;SDS011;6302;42.624;23.334;2024-02-26T09:14:47;7.77;;;6.97;;
12474;SDS011;6302;42.624;23.334;2024-02-26T09:17:15;9.00;;;7.23;;
12474;SDS011;6302;42.624;23.334;2024-02-26T09:19:42;9.47;;;7.47;;
12474;SDS011;6302;42.624;23.334;2024-02-26T09:22:09;10.33;;;8.00;;
12474;SDS011;6302;42.624;23.334;2024-02-26T09:24:36;8.93;;;7.27;;
12474;SDS011;6302;42.624;23.334;2024-02-26T09:27:03;9.43;;;6.70;;
12474;SDS011;6302;42.624;23.334;2024-02-26T09:29:30;8.03;;;6.90;;
12474;SDS011;6302;42.624;23.334;2024-02-26T09:31:58;7.53;;;6.83;;
12474;SDS011;6302;42.624;23.334;2024-02-26T09:34:24;7.60;;;6.53;;
12474;SDS011;6302;42.624;23.334;2024-02-26T09:36:51;8.37;;;6.97;;
12474;SDS011;6302;42.624;23.334;2024-02-26T09:39:18;6.57;;;5.70;;
12474;SDS011;6302;42.624;23.334;2024-02-26T09:41:47;7.40;;;6.23;;
12474;SDS011;6302;42.624;23.334;2024-02-26T09:44:14;6.90;;;6.27;;
12474;SDS011;6302;42.624;23.334;2024-02-26T09:46:44;7.27;;;6.30;;
12474;SDS011;6302;42.624;23.334;2024-02-26T09:49:13;7.40;;;6.47;;
12474;SDS011;6302;42.624;23.334;2024-02-26T09:51:41;7.33;;;6.63;;
12474;SDS011;6302;42.624;23.334;2024-02-26T09:54:09;7.90;;;6.27;;
12474;SDS011;6302;42.624;23.334;2024-02-26T09:56:36;7.67;;;6.50;;
12474;SDS011;6302;42.624;23.334;2024-02-26T09:59:05;6.60;;;6.00;;
12474;SDS011;6302;42.624;23.334;2024-02-26T10:01:36;7.37;;;6.67;;
12474;SDS011;6302;42.624;23.334;2024-02-26T10:04:05;8.00;;;7.20;;
12474;SDS011;6302;42.624;23.334;2024-02-26T10:06:33;7.23;;;6.47;;
12474;SDS011;6302;42.624;23.334;2024-02-26T10:09:02;7.97;;;6.80;;
12474;SDS011;6302;42.624;23.334;2024-02-26T10:11:32;6.87;;;6.17;;
12474;SDS011;6302;42.624;23.334;2024-02-26T10:13:59;6.77;;;6.10;;
12474;SDS011;6302;42.624;23.334;2024-02-26T10:16:25;9.80;;;7.07;;
12474;SDS011;6302;42.624;23.334;2024-02-26T10:18:52;7.57;;;6.33;;
12474;SDS011;6302;42.624;23.334;2024-02-26T10:21:20;7.70;;;6.93;;
12474;SDS011;6302;42.624;23.334;2024-02-26T10:23:49;7.13;;;6.53;;
12474;SDS011;6302;42.624;23.334;2024-02-26T10:26:16;14.87;;;6.80;;
12474;SDS011;6302;42.624;23.334;2024-02-26T10:28:43;7.63;;;6.93;;
12474;SDS011;6302;42.624;23.334;2024-02-26T10:31:13;6.90;;;6.23;;
12474;SDS011;6302;42.624;23.334;2024-02-26T10:33:40;7.43;;;6.73;;
12474;SDS011;6302;42.624;23.334;2024-02-26T10:36:08;6.53;;;5.57;;
12474;SDS011;6302;42.624;23.334;2024-02-26T10:38:35;11.57;;;7.27;;
12474;SDS011;6302;42.624;23.334;2024-02-26T10:41:04;8.37;;;6.17;;
12474;SDS011;6302;42.624;23.334;2024-02-26T10:43:33;8.57;;;6.50;;
12474;SDS011;6302;42.624;23.334;2024-02-26T10:46:00;6.77;;;5.90;;
12474;SDS011;6302;42.624;23.334;2024-02-26T10:48:27;7.33;;;6.60;;
12474;SDS011;6302;42.624;23.334;2024-02-26T10:50:54;11.67;;;7.20;;
12474;SDS011;6302;42.624;23.334;2024-02-26T10:53:22;7.40;;;6.43;;
12474;SDS011;6302;42.624;23.334;2024-02-26T10:55:52;8.00;;;6.37;;
12474;SDS011;6302;42.624;23.334;2024-02-26T10:58:24;8.63;;;7.03;;
12474;SDS011;6302;42.624;23.334;2024-02-26T11:00:52;7.07;;;6.03;;
12474;SDS011;6302;42.624;23.334;2024-02-26T11:03:19;7.10;;;6.40;;
12474;SDS011;6302;42.624;23.334;2024-02-26T11:05:48;7.37;;;6.67;;
12474;SDS011;6302;42.624;23.334;2024-02-26T11:08:15;9.43;;;7.23;;
12474;SDS011;6302;42.624;23.334;2024-02-26T11:10:44;7.37;;;6.60;;
12474;SDS011;6302;42.624;23.334;2024-02-26T11:13:14;7.70;;;6.43;;
12474;SDS011;6302;42.624;23.334;2024-02-26T11:15:45;7.40;;;6.70;;
12474;SDS011;6302;42.624;23.334;2024-02-26T11:18:13;6.88;;;6.18;;
12474;SDS011;6302;42.624;23.334;2024-02-26T11:20:41;9.03;;;6.63;;
12474;SDS011;6302;42.624;23.334;2024-02-26T11:23:08;7.37;;;6.37;;
12474;SDS011;6302;42.624;23.334;2024-02-26T11:25:35;6.57;;;6.07;;
12474;SDS011;6302;42.624;23.334;2024-02-26T11:28:05;7.17;;;6.50;;
12474;SDS011;6302;42.624;23.334;2024-02-26T11:30:35;7.40;;;5.67;;
12474;SDS011;6302;42.624;23.334;2024-02-26T11:33:09;6.60;;;6.10;;
12474;SDS011;6302;42.624;23.334;2024-02-26T11:35:37;6.73;;;6.13;;
12474;SDS011;6302;42.624;23.334;2024-02-26T11:38:05;7.10;;;6.17;;
12474;SDS011;6302;42.624;23.334;2024-02-26T11:40:32;6.30;;;5.80;;
12474;SDS011;6302;42.624;23.334;2024-02-26T11:43:04;6.83;;;6.07;;
12474;SDS011;6302;42.624;23.334;2024-02-26T11:45:50;6.33;;;5.80;;
12474;SDS011;6302;42.624;23.334;2024-02-26T11:48:23;6.70;;;5.97;;
12474;SDS011;6302;42.624;23.334;2024-02-26T11:50:51;7.43;;;6.73;;
12474;SDS011;6302;42.624;23.334;2024-02-26T11:53:22;7.87;;;7.17;;
12474;SDS011;6302;42.624;23.334;2024-02-26T11:58:58;6.70;;;6.00;;
12474;SDS011;6302;42.624;23.334;2024-02-26T12:01:38;6.23;;;5.63;;
12474;SDS011;6302;42.624;23.334;2024-02-26T12:04:13;9.27;;;6.27;;
12474;SDS011;6302;42.624;23.334;2024-02-26T12:06:42;7.83;;;6.00;;
12474;SDS011;6302;42.624;23.334;2024-02-26T12:09:10;7.40;;;5.67;;
12474;SDS011;6302;42.624;23.334;2024-02-26T12:11:38;7.77;;;5.70;;
12474;SDS011;6302;42.624;23.334;2024-02-26T12:14:05;6.77;;;5.50;;
12474;SDS011;6302;42.624;23.334;2024-02-26T12:16:34;6.37;;;5.77;;
12474;SDS011;6302;42.624;23.334;2024-02-26T12:19:03;9.67;;;5.83;;
12474;SDS011;6302;42.624;23.334;2024-02-26T12:21:32;6.43;;;5.63;;
12474;SDS011;6302;42.624;23.334;2024-02-26T12:24:07;6.83;;;5.60;;
12474;SDS011;6302;42.624;23.334;2024-02-26T12:26:36;6.27;;;5.60;;
12474;SDS011;6302;42.624;23.334;2024-02-26T12:29:03;7.33;;;5.80;;
12474;SDS011;6302;42.624;23.334;2024-02-26T12:31:30;9.77;;;5.83;;
12474;SDS011;6302;42.624;23.334;2024-02-26T12:33:57;7.13;;;4.73;;
12474;SDS011;6302;42.624;23.334;2024-02-26T12:36:25;6.22;;;5.15;;
12474;SDS011;6302;42.624;23.334;2024-02-26T12:38:53;6.83;;;4.63;;
12474;SDS011;6302;42.624;23.334;2024-02-26T12:41:20;6.63;;;4.57;;
12474;SDS011;6302;42.624;23.334;2024-02-26T12:43:47;5.00;;;4.37;;
12474;SDS011;6302;42.624;23.334;2024-02-26T12:46:14;6.37;;;4.90;;
12474;SDS011;6302;42.624;23.334;2024-02-26T12:48:42;7.27;;;4.83;;
12474;SDS011;6302;42.624;23.334;2024-02-26T12:51:09;7.10;;;4.60;;
12474;SDS011;6302;42.624;23.334;2024-02-26T12:53:37;6.67;;;4.97;;
12474;SDS011;6302;42.624;23.334;2024-02-26T12:56:06;4.93;;;4.43;;
12474;SDS011;6302;42.624;23.334;2024-02-26T12:58:35;8.30;;;4.87;;
12474;SDS011;6302;42.624;23.334;2024-02-26T13:01:04;5.80;;;4.67;;
12474;SDS011;6302;42.624;23.334;2024-02-26T13:03:31;5.50;;;4.40;;
12474;SDS011;6302;42.624;23.334;2024-02-26T13:06:00;6.37;;;5.10;;
12474;SDS011;6302;42.624;23.334;2024-02-26T13:08:29;6.73;;;5.00;;
12474;SDS011;6302;42.624;23.334;2024-02-26T13:10:56;6.00;;;5.23;;
12474;SDS011;6302;42.624;23.334;2024-02-26T13:13:24;6.00;;;4.33;;
12474;SDS011;6302;42.624;23.334;2024-02-26T13:16:00;5.27;;;4.60;;
12474;SDS011;6302;42.624;23.334;2024-02-26T13:18:27;7.03;;;5.33;;
12474;SDS011;6302;42.624;23.334;2024-02-26T13:21:05;6.07;;;5.40;;
12474;SDS011;6302;42.624;23.334;2024-02-26T13:23:33;5.93;;;4.73;;
12474;SDS011;6302;42.624;23.334;2024-02-26T13:26:00;5.07;;;4.50;;
12474;SDS011;6302;42.624;23.334;2024-02-26T13:28:28;6.13;;;5.23;;
12474;SDS011;6302;42.624;23.334;2024-02-26T13:30:56;5.53;;;5.03;;
12474;SDS011;6302;42.624;23.334;2024-02-26T13:33:25;6.73;;;4.90;;
12474;SDS011;6302;42.624;23.334;2024-02-26T13:35:53;6.43;;;4.73;;
12474;SDS011;6302;42.624;23.334;2024-02-26T13:38:20;7.33;;;4.80;;
12474;SDS011;6302;42.624;23.334;2024-02-26T13:40:47;9.27;;;6.00;;
12474;SDS011;6302;42.624;23.334;2024-02-26T13:43:14;5.43;;;4.80;;
12474;SDS011;6302;42.624;23.334;2024-02-26T13:45:42;6.40;;;5.47;;
12474;SDS011;6302;42.624;23.334;2024-02-26T13:48:09;5.67;;;5.07;;
12474;SDS011;6302;42.624;23.334;2024-02-26T13:50:37;5.53;;;4.23;;
12474;SDS011;6302;42.624;23.334;2024-02-26T13:53:04;5.22;;;4.05;;
12474;SDS011;6302;42.624;23.334;2024-02-26T13:55:31;4.67;;;4.20;;
12474;SDS011;6302;42.624;23.334;2024-02-26T13:57:58;5.37;;;4.87;;
12474;SDS011;6302;42.624;23.334;2024-02-26T14:00:26;7.80;;;4.97;;
12474;SDS011;6302;42.624;23.334;2024-02-26T14:02:55;4.83;;;4.30;;
12474;SDS011;6302;42.624;23.334;2024-02-26T14:05:21;6.87;;;4.53;;
12474;SDS011;6302;42.624;23.334;2024-02-26T14:07:48;8.20;;;4.10;;
12474;SDS011;6302;42.624;23.334;2024-02-26T14:10:15;4.83;;;3.67;;
12474;SDS011;6302;42.624;23.334;2024-02-26T14:12:42;5.00;;;3.90;;
12474;SDS011;6302;42.624;23.334;2024-02-26T14:15:09;5.50;;;4.00;;
12474;SDS011;6302;42.624;23.334;2024-02-26T14:17:36;5.43;;;4.50;;
12474;SDS011;6302;42.624;23.334;2024-02-26T14:20:05;5.13;;;4.03;;
12474;SDS011;6302;42.624;23.334;2024-02-26T14:22:34;4.90;;;4.40;;
12474;SDS011;6302;42.624;23.334;2024-02-26T14:25:00;4.70;;;4.20;;
12474;SDS011;6302;42.624;23.334;2024-02-26T14:27:27;8.33;;;4.30;;
12474;SDS011;6302;42.624;23.334;2024-02-26T14:29:54;6.20;;;4.50;;
12474;SDS011;6302;42.624;23.334;2024-02-26T14:32:21;5.63;;;4.10;;
12474;SDS011;6302;42.624;23.334;2024-02-26T14:34:48;7.35;;;4.80;;
12474;SDS011;6302;42.624;23.334;2024-02-26T14:37:16;6.97;;;4.90;;
12474;SDS011;6302;42.624;23.334;2024-02-26T14:39:43;5.73;;;4.37;;